createdAt,value
2018-01-02T06:29:55.207Z,8.53
2018-01-02T06:32:27.113Z,12.90
2018-01-02T06:34:58.995Z,7.37
2018-01-02T06:37:30.887Z,12.33
2018-01-02T06:40:02.771Z,11.93
2018-01-02T06:42:34.666Z,10.80
2018-01-02T06:45:07.197Z,11.07
2018-01-02T06:47:39.801Z,9.27
2018-01-02T06:50:11.678Z,9.10
2018-01-02T06:52:43.571Z,5.10
2018-01-02T06:55:15.452Z,4.67
2018-01-02T06:57:48.129Z,9.23
2018-01-02T07:00:20.768Z,6.53
2018-01-02T07:02:52.685Z,5.93
2018-01-02T07:05:24.563Z,5.93
2018-01-02T07:07:56.471Z,11.23
2018-01-02T07:10:28.345Z,14.30
2018-01-02T07:13:01.020Z,11.60
2018-01-02T07:15:32.923Z,15.47
2018-01-02T07:18:04.826Z,13.83
2018-01-02T07:20:36.699Z,16.83
2018-01-02T07:23:08.600Z,16.20
2018-01-02T07:25:40.489Z,13.47
2018-01-02T07:28:12.386Z,12.30
2018-01-02T07:30:44.263Z,13.20
2018-01-02T07:33:16.938Z,13.27
2018-01-02T07:35:49.579Z,18.27
2018-01-02T07:38:21.488Z,18.13
2018-01-02T07:40:53.363Z,12.23
2018-01-02T07:43:25.262Z,22.60
2018-01-02T07:45:57.149Z,15.10
2018-01-02T07:48:29.838Z,14.97
2018-01-02T07:51:02.479Z,16.70
2018-01-02T07:53:34.379Z,11.83
2018-01-02T07:56:07.020Z,11.20
2018-01-02T07:58:39.239Z,16.13
2018-01-02T08:01:11.183Z,15.60
2018-01-02T08:03:43.838Z,12.03
2018-01-02T08:06:15.715Z,20.67
2018-01-02T08:08:48.379Z,20.13
2018-01-02T08:11:20.255Z,13.80
2018-01-02T08:13:52.911Z,10.60
2018-01-02T08:16:24.791Z,13.13
2018-01-02T08:18:57.460Z,10.63
2018-01-02T08:21:29.359Z,14.20
2018-01-02T08:24:01.346Z,11.73
2018-01-02T08:26:33.219Z,8.70
2018-01-02T08:29:05.119Z,12.43
2018-01-02T08:31:37.763Z,13.67
2018-01-02T08:34:09.661Z,13.03
2018-01-02T08:36:42.308Z,9.33
2018-01-02T08:39:14.200Z,8.93
2018-01-02T08:41:46.846Z,9.23
2018-01-02T08:44:18.738Z,8.73
2018-01-02T08:46:50.615Z,9.37
2018-01-02T08:49:22.503Z,13.27
2018-01-02T08:51:54.379Z,8.23
2018-01-02T08:54:26.279Z,11.47
2018-01-02T08:56:58.918Z,10.53
2018-01-02T08:59:31.131Z,7.93
2018-01-02T09:02:03.008Z,10.87
2018-01-02T09:04:34.907Z,12.27
2018-01-02T09:07:06.783Z,12.17
2018-01-02T09:09:38.692Z,9.93
2018-01-02T09:12:10.563Z,14.17
2018-01-02T09:14:42.462Z,17.60
2018-01-02T09:17:14.550Z,14.67
2018-01-02T09:19:46.725Z,7.70
2018-01-02T09:22:18.677Z,17.20
2018-01-02T09:24:51.343Z,10.93
2018-01-02T09:27:23.982Z,13.83
2018-01-02T09:29:55.883Z,15.80
2018-01-02T09:32:28.527Z,10.37
2018-01-02T09:35:00.429Z,14.37
2018-01-02T09:37:33.063Z,19.13
2018-01-02T09:40:04.952Z,8.10
2018-01-02T09:42:36.826Z,11.50
2018-01-02T09:45:09.502Z,12.33
2018-01-02T09:47:42.148Z,16.47
2018-01-02T09:50:14.044Z,17.47
2018-01-02T09:52:46.939Z,14.33
2018-01-02T09:55:18.826Z,11.87
2018-01-02T09:57:50.711Z,18.63
2018-01-02T10:00:22.599Z,16.40
2018-01-02T10:02:55.239Z,8.87
2018-01-02T10:05:27.143Z,10.53
2018-01-02T10:07:59.783Z,13.90
2018-01-02T10:10:31.687Z,17.40
2018-01-02T10:13:04.327Z,12.87
2018-01-02T10:15:36.338Z,10.97
2018-01-02T10:18:08.209Z,13.10
2018-01-02T10:23:17.468Z,11.77
2018-01-02T10:25:49.354Z,14.13
2018-01-02T10:28:21.239Z,10.57
2018-01-02T10:30:53.134Z,11.97
2018-01-02T10:33:25.011Z,13.07
2018-01-02T10:35:56.915Z,9.73
2018-01-02T10:38:28.791Z,12.90
2018-01-02T10:41:01.463Z,18.50
2018-01-02T10:43:34.103Z,12.80
2018-01-02T10:46:06.009Z,12.47
2018-01-02T10:48:38.642Z,10.83
2018-01-02T10:51:10.546Z,11.50
2018-01-02T10:53:43.187Z,13.02
2018-01-02T10:56:15.078Z,13.20
2018-01-02T10:58:47.711Z,11.43
2018-01-02T11:01:19.615Z,8.57
2018-01-02T11:03:51.482Z,14.37
2018-01-02T11:06:24.138Z,12.80
2018-01-02T11:08:56.006Z,15.27
2018-01-02T11:11:27.899Z,14.50
2018-01-02T11:13:59.857Z,11.43
2018-01-02T11:16:32.515Z,8.10
2018-01-02T11:19:05.151Z,8.23
2018-01-02T11:21:37.080Z,10.23
2018-01-02T11:24:10.527Z,11.33
2018-01-02T11:26:42.412Z,13.30
2018-01-02T11:29:15.053Z,9.63
2018-01-02T11:31:46.961Z,10.47
2018-01-02T11:34:19.590Z,9.03
2018-01-02T11:36:51.505Z,14.23
2018-01-02T11:39:24.139Z,9.03
2018-01-02T11:41:56.038Z,9.67
2018-01-02T11:44:28.667Z,10.90
2018-01-02T11:47:00.557Z,7.40
2018-01-02T11:49:32.435Z,13.27
2018-01-02T11:52:05.092Z,9.00
2018-01-02T11:54:36.955Z,9.07
2018-01-02T11:57:08.854Z,15.47
2018-01-02T11:59:40.739Z,9.40
2018-01-02T12:02:12.648Z,14.17
2018-01-02T12:04:45.279Z,12.67
2018-01-02T12:07:17.184Z,9.93
2018-01-02T12:09:49.814Z,6.17
2018-01-02T12:12:21.715Z,9.53
2018-01-02T12:14:53.580Z,8.33
2018-01-02T12:17:26.240Z,8.73
2018-01-02T12:19:58.105Z,8.27
2018-01-02T12:22:30.003Z,8.67
2018-01-02T12:25:01.887Z,10.87
2018-01-02T12:27:33.779Z,9.13
2018-01-02T12:30:05.659Z,10.90
2018-01-02T12:32:37.546Z,13.17
2018-01-02T12:35:09.420Z,10.30
2018-01-02T12:37:41.316Z,8.20
2018-01-02T12:40:13.198Z,7.07
2018-01-02T12:42:45.087Z,7.53
2018-01-02T12:45:17.586Z,7.00
2018-01-02T12:47:49.459Z,10.23
2018-01-02T12:50:21.331Z,11.97
2018-01-02T12:52:53.243Z,11.17
2018-01-02T12:55:25.111Z,11.53
2018-01-02T12:57:57.006Z,8.13
2018-01-02T13:00:28.867Z,9.40
2018-01-02T13:03:02.263Z,8.00
2018-01-02T13:05:34.133Z,10.80
2018-01-02T13:08:06.030Z,6.50
2018-01-02T13:10:37.904Z,7.37
2018-01-02T13:13:09.795Z,11.77
2018-01-02T13:15:41.671Z,7.10
2018-01-02T13:18:13.569Z,6.53
2018-01-02T13:20:45.438Z,8.37
2018-01-02T13:23:17.334Z,7.57
2018-01-02T13:25:49.969Z,9.97
2018-01-02T13:28:21.862Z,12.80
2018-01-02T13:30:53.731Z,15.13
2018-01-02T13:33:25.650Z,10.33
2018-01-02T13:35:58.531Z,8.27
2018-01-02T13:38:30.419Z,9.37
2018-01-02T13:41:02.303Z,14.77
2018-01-02T13:43:34.191Z,12.70
2018-01-02T13:46:06.830Z,11.53
2018-01-02T13:48:38.726Z,11.90
2018-01-02T13:51:10.613Z,10.03
2018-01-02T13:53:42.503Z,9.23
2018-01-02T13:56:14.371Z,11.37
2018-01-02T13:58:46.265Z,9.33
2018-01-02T14:01:18.130Z,9.10
2018-01-02T14:03:50.015Z,6.33
2018-01-02T14:06:21.879Z,17.03
2018-01-02T14:08:53.775Z,8.57
2018-01-02T14:11:25.651Z,9.50
2018-01-02T14:13:57.562Z,8.03
2018-01-02T14:16:29.463Z,13.73
2018-01-02T14:19:01.359Z,12.67
2018-01-02T14:21:33.990Z,8.83
2018-01-02T14:24:05.895Z,11.47
2018-01-02T14:26:38.539Z,11.43
2018-01-02T14:29:10.439Z,9.87
2018-01-02T14:31:43.079Z,11.40
2018-01-02T14:34:14.999Z,9.03
2018-01-02T14:36:46.879Z,10.53
2018-01-02T14:39:18.787Z,7.83
2018-01-02T14:41:50.651Z,12.20
2018-01-02T14:44:23.311Z,16.10
2018-01-02T14:46:55.410Z,10.57
2018-01-02T14:49:27.323Z,9.10
2018-01-02T14:51:59.192Z,11.60
2018-01-02T14:54:31.095Z,11.93
2018-01-02T14:57:02.967Z,12.67
2018-01-02T14:59:34.862Z,7.80
2018-01-02T15:02:06.744Z,10.70
2018-01-02T15:04:38.639Z,8.23
2018-01-02T15:07:10.508Z,6.77
2018-01-02T15:09:42.398Z,12.97
2018-01-02T15:12:14.341Z,9.63
2018-01-02T15:14:46.239Z,12.90
2018-01-02T15:17:18.105Z,13.30
2018-01-02T15:19:50.000Z,11.20
2018-01-02T15:22:21.872Z,9.70
2018-01-02T15:24:53.778Z,12.83
2018-01-02T15:27:25.651Z,15.87
2018-01-02T15:29:58.327Z,14.80
2018-01-02T15:32:30.190Z,16.43
2018-01-02T15:35:02.859Z,11.47
2018-01-02T15:37:34.735Z,13.43
2018-01-02T15:40:07.394Z,15.07
2018-01-02T15:42:39.271Z,15.50
2018-01-02T15:45:11.931Z,10.27
2018-01-02T15:47:43.816Z,15.43
2018-01-02T15:50:16.465Z,15.10
2018-01-02T15:52:48.347Z,13.13
2018-01-02T15:55:21.007Z,12.60
2018-01-02T15:57:52.877Z,15.23
2018-01-02T16:00:24.776Z,12.43
2018-01-02T16:02:56.643Z,9.73
2018-01-02T16:05:28.527Z,15.00
2018-01-02T16:08:00.398Z,13.53
2018-01-02T16:10:32.307Z,12.63
2018-01-02T16:13:04.193Z,15.07
2018-01-02T16:15:36.084Z,12.77
2018-01-02T16:18:07.963Z,12.97
2018-01-02T16:20:40.626Z,16.30
2018-01-02T16:23:12.491Z,15.97
2018-01-02T16:25:44.395Z,16.53
2018-01-02T16:28:16.264Z,12.80
2018-01-02T16:30:48.159Z,10.67
2018-01-02T16:33:20.044Z,18.33
2018-01-02T16:35:52.695Z,18.50
2018-01-02T16:38:24.582Z,18.23
2018-01-02T16:40:57.251Z,13.30
2018-01-02T16:43:29.116Z,18.03
2018-01-02T16:46:01.027Z,15.17
2018-01-02T16:48:32.899Z,16.80
2018-01-02T16:51:04.799Z,17.83
2018-01-02T16:53:37.432Z,21.53
2018-01-02T16:56:09.348Z,15.63
2018-01-02T16:58:41.980Z,17.23
2018-01-02T17:01:13.870Z,13.40
2018-01-02T17:03:46.577Z,18.17
2018-01-02T17:06:18.472Z,16.33
2018-01-02T17:08:50.334Z,19.50
2018-01-02T17:11:22.213Z,15.97
2018-01-02T17:13:54.091Z,14.00
2018-01-02T17:16:26.762Z,22.30
2018-01-02T17:18:58.859Z,17.57
2018-01-02T17:21:30.771Z,21.07
2018-01-02T17:24:02.643Z,16.47
2018-01-02T17:26:34.544Z,16.33
2018-01-02T17:29:06.500Z,19.90
2018-01-02T17:31:39.142Z,22.47
2018-01-02T17:34:11.025Z,12.87
2018-01-02T17:36:43.689Z,19.23
2018-01-02T17:39:15.558Z,16.77
2018-01-02T17:41:48.215Z,22.37
2018-01-02T17:44:20.115Z,19.87
2018-01-02T17:46:52.768Z,21.87
2018-01-02T17:49:24.642Z,15.43
2018-01-02T17:51:57.299Z,12.13
2018-01-02T17:54:29.176Z,18.17
2018-01-02T17:57:01.821Z,18.47
2018-01-02T17:59:33.730Z,19.73
2018-01-02T18:02:06.616Z,16.13
2018-01-02T18:04:38.482Z,16.03
2018-01-02T18:07:10.384Z,18.37
2018-01-02T18:09:43.026Z,22.37
2018-01-02T18:12:14.920Z,15.50
2018-01-02T18:14:46.792Z,20.47
2018-01-02T18:17:18.695Z,35.10
2018-01-02T18:19:50.573Z,37.40
2018-01-02T18:22:22.468Z,21.13
2018-01-02T18:24:54.351Z,23.10
2018-01-02T18:27:27.006Z,22.07
2018-01-02T18:29:58.879Z,27.70
2018-01-02T18:32:30.788Z,22.87
2018-01-02T18:35:02.656Z,27.43
2018-01-02T18:37:34.546Z,20.50
2018-01-02T18:40:06.421Z,23.80
2018-01-02T18:42:38.307Z,19.80
2018-01-02T18:45:10.946Z,30.93
2018-01-02T18:47:42.830Z,20.00
2018-01-02T18:50:15.736Z,25.27
2018-01-02T18:52:47.613Z,21.33
2018-01-02T18:55:19.482Z,16.67
2018-01-02T18:57:51.389Z,20.87
2018-01-02T19:00:23.254Z,21.63
2018-01-02T19:02:55.918Z,24.43
2018-01-02T19:05:27.791Z,25.80
2018-01-02T19:07:59.701Z,21.33
2018-01-02T19:10:31.572Z,18.53
2018-01-02T19:13:03.466Z,23.37
2018-01-02T19:15:35.328Z,30.43
2018-01-02T19:18:07.224Z,25.47
2018-01-02T19:20:39.116Z,22.07
2018-01-02T19:23:11.003Z,20.37
2018-01-02T19:25:42.876Z,21.57
2018-01-02T19:28:15.574Z,20.50
2018-01-02T19:30:47.410Z,21.73
2018-01-02T19:33:19.601Z,18.83
2018-01-02T19:35:51.561Z,19.10
2018-01-02T19:38:24.217Z,15.33
2018-01-02T19:40:56.855Z,16.30
2018-01-02T19:43:28.752Z,20.40
2018-01-02T19:46:00.614Z,18.43
2018-01-02T19:48:32.506Z,14.50
2018-01-02T19:51:04.394Z,15.30
2018-01-02T19:53:36.290Z,18.87
2018-01-02T19:56:08.219Z,15.93
2018-01-02T19:58:40.134Z,19.40
2018-01-02T20:01:12.779Z,14.20
2018-01-02T20:03:44.658Z,17.67
2018-01-02T20:06:17.292Z,17.97
2018-01-02T20:08:49.191Z,15.70
2018-01-02T20:11:21.063Z,15.60
2018-01-02T20:13:53.719Z,17.47
2018-01-02T20:16:25.590Z,11.67
2018-01-02T20:18:57.482Z,15.77
2018-01-02T20:21:29.365Z,15.37
2018-01-02T20:24:01.393Z,21.07
2018-01-02T20:26:34.031Z,21.93
2018-01-02T20:29:05.936Z,10.40
2018-01-02T20:31:38.563Z,8.47
2018-01-02T20:34:10.451Z,8.73
2018-01-02T20:36:42.332Z,11.97
2018-01-02T20:39:15.012Z,9.17
2018-01-02T20:41:46.887Z,9.13
2018-01-02T20:44:18.835Z,5.70
2018-01-02T20:46:51.449Z,7.47
2018-01-02T20:49:23.343Z,7.40
2018-01-02T20:51:55.210Z,4.20
2018-01-02T20:54:27.866Z,6.70
2018-01-02T20:56:59.731Z,6.80
2018-01-02T20:59:31.618Z,7.20
